sensor_id;sensor_type;location;lat;lon;timestamp;P1;durP1;ratioP1;P2;durP2;ratioP2
67456;SDS011;54319;52.038;4.640;2023-08-30T00:00:53;4.72;;;3.10;;
67456;SDS011;54319;52.038;4.640;2023-08-30T00:03:20;5.37;;;3.03;;
67456;SDS011;54319;52.038;4.640;2023-08-30T00:05:47;5.55;;;3.13;;
67456;SDS011;54319;52.038;4.640;2023-08-30T00:08:14;7.32;;;3.20;;
67456;SDS011;54319;52.038;4.640;2023-08-30T00:10:43;5.85;;;3.35;;
67456;SDS011;54319;52.038;4.640;2023-08-30T00:13:10;6.18;;;3.78;;
67456;SDS011;54319;52.038;4.640;2023-08-30T00:15:38;5.10;;;3.20;;
67456;SDS011;54319;52.038;4.640;2023-08-30T00:18:04;5.40;;;3.13;;
67456;SDS011;54319;52.038;4.640;2023-08-30T00:20:31;5.22;;;3.38;;
67456;SDS011;54319;52.038;4.640;2023-08-30T00:22:57;5.13;;;3.17;;
67456;SDS011;54319;52.038;4.640;2023-08-30T00:25:24;4.82;;;3.47;;
67456;SDS011;54319;52.038;4.640;2023-08-30T00:27:51;7.33;;;3.90;;
67456;SDS011;54319;52.038;4.640;2023-08-30T00:30:17;4.17;;;3.30;;
67456;SDS011;54319;52.038;4.640;2023-08-30T00:32:45;5.53;;;3.40;;
67456;SDS011;54319;52.038;4.640;2023-08-30T00:35:12;6.32;;;3.70;;
67456;SDS011;54319;52.038;4.640;2023-08-30T00:37:38;5.67;;;3.73;;
67456;SDS011;54319;52.038;4.640;2023-08-30T00:40:05;6.17;;;4.37;;
67456;SDS011;54319;52.038;4.640;2023-08-30T00:42:33;7.13;;;4.22;;
67456;SDS011;54319;52.038;4.640;2023-08-30T00:44:59;5.93;;;4.10;;
67456;SDS011;54319;52.038;4.640;2023-08-30T00:47:26;6.40;;;3.70;;
67456;SDS011;54319;52.038;4.640;2023-08-30T00:49:54;8.40;;;4.43;;
67456;SDS011;54319;52.038;4.640;2023-08-30T00:52:21;6.78;;;4.35;;
67456;SDS011;54319;52.038;4.640;2023-08-30T00:54:47;5.65;;;4.10;;
67456;SDS011;54319;52.038;4.640;2023-08-30T00:57:14;8.15;;;4.40;;
67456;SDS011;54319;52.038;4.640;2023-08-30T00:59:42;7.88;;;4.53;;
67456;SDS011;54319;52.038;4.640;2023-08-30T01:02:09;6.97;;;4.60;;
67456;SDS011;54319;52.038;4.640;2023-08-30T01:04:35;6.95;;;4.35;;
67456;SDS011;54319;52.038;4.640;2023-08-30T01:07:04;6.43;;;4.32;;
67456;SDS011;54319;52.038;4.640;2023-08-30T01:09:30;7.43;;;4.55;;
67456;SDS011;54319;52.038;4.640;2023-08-30T01:11:57;8.73;;;4.57;;
67456;SDS011;54319;52.038;4.640;2023-08-30T01:14:34;6.60;;;4.22;;
67456;SDS011;54319;52.038;4.640;2023-08-30T01:17:04;7.80;;;4.13;;
67456;SDS011;54319;52.038;4.640;2023-08-30T01:19:36;7.05;;;4.50;;
67456;SDS011;54319;52.038;4.640;2023-08-30T01:22:16;9.57;;;5.57;;
67456;SDS011;54319;52.038;4.640;2023-08-30T01:24:48;6.65;;;4.60;;
67456;SDS011;54319;52.038;4.640;2023-08-30T01:27:25;7.68;;;4.72;;
67456;SDS011;54319;52.038;4.640;2023-08-30T01:29:57;7.68;;;4.65;;
67456;SDS011;54319;52.038;4.640;2023-08-30T01:32:25;7.68;;;4.50;;
67456;SDS011;54319;52.038;4.640;2023-08-30T01:34:53;9.35;;;5.22;;
67456;SDS011;54319;52.038;4.640;2023-08-30T01:37:21;7.13;;;4.70;;
67456;SDS011;54319;52.038;4.640;2023-08-30T01:39:50;7.75;;;4.90;;
67456;SDS011;54319;52.038;4.640;2023-08-30T01:42:18;6.85;;;4.72;;
67456;SDS011;54319;52.038;4.640;2023-08-30T01:44:48;7.47;;;4.70;;
67456;SDS011;54319;52.038;4.640;2023-08-30T01:47:19;8.85;;;4.68;;
67456;SDS011;54319;52.038;4.640;2023-08-30T01:49:48;7.90;;;4.97;;
67456;SDS011;54319;52.038;4.640;2023-08-30T01:52:16;7.55;;;5.18;;
67456;SDS011;54319;52.038;4.640;2023-08-30T01:54:43;8.27;;;5.20;;
67456;SDS011;54319;52.038;4.640;2023-08-30T01:57:11;7.18;;;4.55;;
67456;SDS011;54319;52.038;4.640;2023-08-30T01:59:38;12.60;;;5.20;;
67456;SDS011;54319;52.038;4.640;2023-08-30T02:02:06;9.05;;;5.30;;
67456;SDS011;54319;52.038;4.640;2023-08-30T02:04:33;9.35;;;5.10;;
67456;SDS011;54319;52.038;4.640;2023-08-30T02:07:01;11.05;;;5.07;;
67456;SDS011;54319;52.038;4.640;2023-08-30T02:09:30;9.90;;;5.45;;
67456;SDS011;54319;52.038;4.640;2023-08-30T02:12:05;8.25;;;5.05;;
67456;SDS011;54319;52.038;4.640;2023-08-30T02:14:36;8.75;;;5.25;;
67456;SDS011;54319;52.038;4.640;2023-08-30T02:17:07;9.80;;;5.38;;
67456;SDS011;54319;52.038;4.640;2023-08-30T02:19:35;7.97;;;5.13;;
67456;SDS011;54319;52.038;4.640;2023-08-30T02:22:01;11.55;;;5.97;;
67456;SDS011;54319;52.038;4.640;2023-08-30T02:24:28;8.68;;;5.70;;
67456;SDS011;54319;52.038;4.640;2023-08-30T02:26:55;7.83;;;5.33;;
67456;SDS011;54319;52.038;4.640;2023-08-30T02:29:21;8.30;;;4.20;;
67456;SDS011;54319;52.038;4.640;2023-08-30T02:31:48;6.83;;;4.80;;
67456;SDS011;54319;52.038;4.640;2023-08-30T02:34:16;7.17;;;4.87;;
67456;SDS011;54319;52.038;4.640;2023-08-30T02:36:42;10.40;;;5.25;;
67456;SDS011;54319;52.038;4.640;2023-08-30T02:39:10;14.70;;;4.80;;
67456;SDS011;54319;52.038;4.640;2023-08-30T02:41:37;8.45;;;4.95;;
67456;SDS011;54319;52.038;4.640;2023-08-30T02:44:05;7.25;;;4.82;;
67456;SDS011;54319;52.038;4.640;2023-08-30T02:46:33;6.32;;;4.50;;
67456;SDS011;54319;52.038;4.640;2023-08-30T02:49:02;6.25;;;4.35;;
67456;SDS011;54319;52.038;4.640;2023-08-30T02:51:30;8.68;;;5.30;;
67456;SDS011;54319;52.038;4.640;2023-08-30T02:53:57;8.10;;;4.75;;
67456;SDS011;54319;52.038;4.640;2023-08-30T02:56:23;7.45;;;4.75;;
67456;SDS011;54319;52.038;4.640;2023-08-30T02:58:51;10.18;;;4.90;;
67456;SDS011;54319;52.038;4.640;2023-08-30T03:01:17;9.67;;;4.67;;
67456;SDS011;54319;52.038;4.640;2023-08-30T03:03:45;8.80;;;5.43;;
67456;SDS011;54319;52.038;4.640;2023-08-30T03:06:11;12.73;;;4.90;;
67456;SDS011;54319;52.038;4.640;2023-08-30T03:11:07;11.00;;;5.55;;
67456;SDS011;54319;52.038;4.640;2023-08-30T03:13:34;10.20;;;5.32;;
67456;SDS011;54319;52.038;4.640;2023-08-30T03:18:28;8.90;;;5.70;;
67456;SDS011;54319;52.038;4.640;2023-08-30T03:20:59;10.73;;;6.28;;
67456;SDS011;54319;52.038;4.640;2023-08-30T03:23:26;10.20;;;6.03;;
67456;SDS011;54319;52.038;4.640;2023-08-30T03:25:54;7.97;;;5.73;;
67456;SDS011;54319;52.038;4.640;2023-08-30T03:28:21;8.88;;;6.05;;
67456;SDS011;54319;52.038;4.640;2023-08-30T03:30:48;8.13;;;5.80;;
67456;SDS011;54319;52.038;4.640;2023-08-30T03:33:14;9.90;;;6.07;;
67456;SDS011;54319;52.038;4.640;2023-08-30T03:35:41;9.57;;;5.83;;
67456;SDS011;54319;52.038;4.640;2023-08-30T03:38:07;10.47;;;5.60;;
67456;SDS011;54319;52.038;4.640;2023-08-30T03:40:34;10.80;;;5.67;;
67456;SDS011;54319;52.038;4.640;2023-08-30T03:43:02;10.70;;;5.80;;
67456;SDS011;54319;52.038;4.640;2023-08-30T03:45:29;8.73;;;5.80;;
67456;SDS011;54319;52.038;4.640;2023-08-30T03:48:00;11.45;;;6.78;;
67456;SDS011;54319;52.038;4.640;2023-08-30T03:50:27;10.50;;;5.95;;
67456;SDS011;54319;52.038;4.640;2023-08-30T03:52:54;9.30;;;5.83;;
67456;SDS011;54319;52.038;4.640;2023-08-30T03:55:20;9.67;;;6.67;;
67456;SDS011;54319;52.038;4.640;2023-08-30T03:57:48;15.10;;;6.68;;
67456;SDS011;54319;52.038;4.640;2023-08-30T04:00:16;8.68;;;6.13;;
67456;SDS011;54319;52.038;4.640;2023-08-30T04:02:42;9.50;;;6.22;;
67456;SDS011;54319;52.038;4.640;2023-08-30T04:07:36;9.70;;;6.70;;
67456;SDS011;54319;52.038;4.640;2023-08-30T04:10:03;12.60;;;7.22;;
67456;SDS011;54319;52.038;4.640;2023-08-30T04:12:32;11.43;;;6.35;;
67456;SDS011;54319;52.038;4.640;2023-08-30T04:14:59;11.70;;;7.22;;
67456;SDS011;54319;52.038;4.640;2023-08-30T04:17:27;11.68;;;7.45;;
67456;SDS011;54319;52.038;4.640;2023-08-30T04:19:54;12.82;;;6.88;;
67456;SDS011;54319;52.038;4.640;2023-08-30T04:22:20;11.50;;;6.40;;
67456;SDS011;54319;52.038;4.640;2023-08-30T04:24:48;11.20;;;7.07;;
67456;SDS011;54319;52.038;4.640;2023-08-30T04:27:15;11.73;;;7.15;;
67456;SDS011;54319;52.038;4.640;2023-08-30T04:29:41;13.60;;;7.20;;
67456;SDS011;54319;52.038;4.640;2023-08-30T04:32:10;10.13;;;6.72;;
67456;SDS011;54319;52.038;4.640;2023-08-30T04:34:38;11.52;;;7.78;;
67456;SDS011;54319;52.038;4.640;2023-08-30T04:37:04;10.98;;;7.10;;
67456;SDS011;54319;52.038;4.640;2023-08-30T04:39:31;14.60;;;7.72;;
67456;SDS011;54319;52.038;4.640;2023-08-30T04:41:58;10.30;;;7.27;;
67456;SDS011;54319;52.038;4.640;2023-08-30T04:44:24;11.40;;;7.30;;
67456;SDS011;54319;52.038;4.640;2023-08-30T04:46:52;13.93;;;7.63;;
67456;SDS011;54319;52.038;4.640;2023-08-30T04:49:19;11.85;;;7.30;;
67456;SDS011;54319;52.038;4.640;2023-08-30T04:51:48;10.73;;;6.93;;
67456;SDS011;54319;52.038;4.640;2023-08-30T04:54:14;12.57;;;7.47;;
67456;SDS011;54319;52.038;4.640;2023-08-30T04:56:41;13.33;;;7.80;;
67456;SDS011;54319;52.038;4.640;2023-08-30T04:59:08;12.70;;;7.50;;
67456;SDS011;54319;52.038;4.640;2023-08-30T05:01:35;12.30;;;7.20;;
67456;SDS011;54319;52.038;4.640;2023-08-30T05:06:30;13.73;;;7.18;;
67456;SDS011;54319;52.038;4.640;2023-08-30T05:08:58;11.40;;;6.95;;
67456;SDS011;54319;52.038;4.640;2023-08-30T05:11:25;12.73;;;7.47;;
67456;SDS011;54319;52.038;4.640;2023-08-30T05:13:51;11.70;;;7.20;;
67456;SDS011;54319;52.038;4.640;2023-08-30T05:16:18;14.53;;;7.67;;
67456;SDS011;54319;52.038;4.640;2023-08-30T05:18:45;14.70;;;7.90;;
67456;SDS011;54319;52.038;4.640;2023-08-30T05:21:13;11.80;;;7.50;;
67456;SDS011;54319;52.038;4.640;2023-08-30T05:23:39;15.38;;;8.98;;
67456;SDS011;54319;52.038;4.640;2023-08-30T05:28:35;13.38;;;8.00;;
67456;SDS011;54319;52.038;4.640;2023-08-30T05:31:01;16.43;;;8.37;;
67456;SDS011;54319;52.038;4.640;2023-08-30T05:33:28;18.47;;;9.77;;
67456;SDS011;54319;52.038;4.640;2023-08-30T05:35:55;22.17;;;9.18;;
67456;SDS011;54319;52.038;4.640;2023-08-30T05:38:22;14.52;;;8.35;;
67456;SDS011;54319;52.038;4.640;2023-08-30T05:40:48;16.27;;;8.73;;
67456;SDS011;54319;52.038;4.640;2023-08-30T05:43:16;16.65;;;9.20;;
67456;SDS011;54319;52.038;4.640;2023-08-30T05:45:43;17.13;;;9.10;;
67456;SDS011;54319;52.038;4.640;2023-08-30T05:48:10;17.23;;;9.30;;
67456;SDS011;54319;52.038;4.640;2023-08-30T05:50:37;17.73;;;9.88;;
67456;SDS011;54319;52.038;4.640;2023-08-30T05:53:04;13.82;;;9.02;;
67456;SDS011;54319;52.038;4.640;2023-08-30T05:55:31;13.43;;;8.80;;
67456;SDS011;54319;52.038;4.640;2023-08-30T05:57:58;21.13;;;9.63;;
67456;SDS011;54319;52.038;4.640;2023-08-30T06:00:28;14.68;;;9.20;;
67456;SDS011;54319;52.038;4.640;2023-08-30T06:02:55;15.48;;;9.85;;
67456;SDS011;54319;52.038;4.640;2023-08-30T06:05:22;12.30;;;8.80;;
67456;SDS011;54319;52.038;4.640;2023-08-30T06:07:48;15.07;;;8.90;;
67456;SDS011;54319;52.038;4.640;2023-08-30T06:10:15;17.30;;;9.93;;
67456;SDS011;54319;52.038;4.640;2023-08-30T06:12:41;18.13;;;9.30;;
67456;SDS011;54319;52.038;4.640;2023-08-30T06:15:08;14.67;;;9.23;;
67456;SDS011;54319;52.038;4.640;2023-08-30T06:17:36;19.88;;;9.55;;
67456;SDS011;54319;52.038;4.640;2023-08-30T06:20:03;16.25;;;9.75;;
67456;SDS011;54319;52.038;4.640;2023-08-30T06:22:31;17.45;;;9.32;;
67456;SDS011;54319;52.038;4.640;2023-08-30T06:24:58;13.68;;;8.43;;
67456;SDS011;54319;52.038;4.640;2023-08-30T06:27:25;14.47;;;9.20;;
67456;SDS011;54319;52.038;4.640;2023-08-30T06:29:52;13.77;;;8.90;;
67456;SDS011;54319;52.038;4.640;2023-08-30T06:32:18;14.77;;;9.03;;
67456;SDS011;54319;52.038;4.640;2023-08-30T06:34:46;16.50;;;9.10;;
67456;SDS011;54319;52.038;4.640;2023-08-30T06:37:13;14.68;;;9.10;;
67456;SDS011;54319;52.038;4.640;2023-08-30T06:39:39;13.23;;;8.40;;
67456;SDS011;54319;52.038;4.640;2023-08-30T06:42:07;14.45;;;8.68;;
67456;SDS011;54319;52.038;4.640;2023-08-30T06:44:34;17.07;;;9.23;;
67456;SDS011;54319;52.038;4.640;2023-08-30T06:47:00;19.83;;;10.52;;
67456;SDS011;54319;52.038;4.640;2023-08-30T06:49:28;14.90;;;10.15;;
67456;SDS011;54319;52.038;4.640;2023-08-30T06:51:58;15.07;;;10.38;;
67456;SDS011;54319;52.038;4.640;2023-08-30T06:54:26;15.05;;;9.85;;
67456;SDS011;54319;52.038;4.640;2023-08-30T06:56:56;16.37;;;10.90;;
67456;SDS011;54319;52.038;4.640;2023-08-30T06:59:24;21.95;;;10.65;;
67456;SDS011;54319;52.038;4.640;2023-08-30T07:01:50;17.42;;;10.13;;
67456;SDS011;54319;52.038;4.640;2023-08-30T07:04:17;13.73;;;9.50;;
67456;SDS011;54319;52.038;4.640;2023-08-30T07:06:44;16.15;;;9.80;;
67456;SDS011;54319;52.038;4.640;2023-08-30T07:09:15;17.30;;;10.27;;
67456;SDS011;54319;52.038;4.640;2023-08-30T07:11:42;15.57;;;9.68;;
67456;SDS011;54319;52.038;4.640;2023-08-30T07:14:10;15.02;;;9.40;;
67456;SDS011;54319;52.038;4.640;2023-08-30T07:16:37;16.52;;;9.75;;
67456;SDS011;54319;52.038;4.640;2023-08-30T07:19:04;15.43;;;9.55;;
67456;SDS011;54319;52.038;4.640;2023-08-30T07:21:30;14.20;;;9.13;;
67456;SDS011;54319;52.038;4.640;2023-08-30T07:23:58;15.10;;;9.25;;
67456;SDS011;54319;52.038;4.640;2023-08-30T07:26:26;12.77;;;8.93;;
67456;SDS011;54319;52.038;4.640;2023-08-30T07:28:53;12.25;;;8.00;;
67456;SDS011;54319;52.038;4.640;2023-08-30T07:31:19;12.27;;;7.68;;
67456;SDS011;54319;52.038;4.640;2023-08-30T07:33:47;11.25;;;7.60;;
67456;SDS011;54319;52.038;4.640;2023-08-30T07:36:14;9.93;;;7.03;;
67456;SDS011;54319;52.038;4.640;2023-08-30T07:38:41;10.43;;;6.70;;
67456;SDS011;54319;52.038;4.640;2023-08-30T07:41:09;9.27;;;6.73;;
67456;SDS011;54319;52.038;4.640;2023-08-30T07:43:37;8.80;;;6.47;;
67456;SDS011;54319;52.038;4.640;2023-08-30T07:46:04;11.23;;;6.60;;
67456;SDS011;54319;52.038;4.640;2023-08-30T07:48:30;9.53;;;6.17;;
67456;SDS011;54319;52.038;4.640;2023-08-30T07:50:57;10.50;;;6.70;;
67456;SDS011;54319;52.038;4.640;2023-08-30T07:53:23;8.43;;;5.77;;
67456;SDS011;54319;52.038;4.640;2023-08-30T07:55:50;7.50;;;5.47;;
67456;SDS011;54319;52.038;4.640;2023-08-30T07:58:18;7.47;;;5.78;;
67456;SDS011;54319;52.038;4.640;2023-08-30T08:00:46;8.07;;;5.73;;
67456;SDS011;54319;52.038;4.640;2023-08-30T08:03:16;8.65;;;5.32;;
67456;SDS011;54319;52.038;4.640;2023-08-30T08:05:43;8.60;;;5.55;;
67456;SDS011;54319;52.038;4.640;2023-08-30T08:08:12;7.80;;;5.55;;
67456;SDS011;54319;52.038;4.640;2023-08-30T08:10:39;7.90;;;5.35;;
67456;SDS011;54319;52.038;4.640;2023-08-30T08:13:06;7.90;;;5.70;;
67456;SDS011;54319;52.038;4.640;2023-08-30T08:15:33;8.73;;;5.35;;
67456;SDS011;54319;52.038;4.640;2023-08-30T08:18:03;8.00;;;5.22;;
67456;SDS011;54319;52.038;4.640;2023-08-30T08:20:30;7.07;;;5.35;;
67456;SDS011;54319;52.038;4.640;2023-08-30T08:22:57;7.38;;;5.47;;
67456;SDS011;54319;52.038;4.640;2023-08-30T08:25:24;10.60;;;6.07;;
67456;SDS011;54319;52.038;4.640;2023-08-30T08:27:50;8.38;;;6.30;;
67456;SDS011;54319;52.038;4.640;2023-08-30T08:30:18;7.87;;;5.60;;
67456;SDS011;54319;52.038;4.640;2023-08-30T08:32:46;8.07;;;6.30;;
67456;SDS011;54319;52.038;4.640;2023-08-30T08:35:15;9.55;;;6.53;;
67456;SDS011;54319;52.038;4.640;2023-08-30T08:37:42;8.07;;;6.43;;
67456;SDS011;54319;52.038;4.640;2023-08-30T08:40:09;9.30;;;6.88;;
67456;SDS011;54319;52.038;4.640;2023-08-30T08:42:37;11.35;;;7.70;;
67456;SDS011;54319;52.038;4.640;2023-08-30T08:45:04;11.83;;;7.37;;
67456;SDS011;54319;52.038;4.640;2023-08-30T08:47:33;13.60;;;9.18;;
67456;SDS011;54319;52.038;4.640;2023-08-30T08:50:00;13.90;;;9.82;;
67456;SDS011;54319;52.038;4.640;2023-08-30T08:52:30;12.73;;;9.68;;
67456;SDS011;54319;52.038;4.640;2023-08-30T08:54:58;12.60;;;9.30;;
67456;SDS011;54319;52.038;4.640;2023-08-30T08:57:26;11.13;;;9.70;;
67456;SDS011;54319;52.038;4.640;2023-08-30T08:59:55;10.93;;;8.18;;
67456;SDS011;54319;52.038;4.640;2023-08-30T09:02:21;13.85;;;7.93;;
67456;SDS011;54319;52.038;4.640;2023-08-30T09:04:49;9.30;;;6.53;;
67456;SDS011;54319;52.038;4.640;2023-08-30T09:07:18;11.93;;;6.57;;
67456;SDS011;54319;52.038;4.640;2023-08-30T09:09:47;4.45;;;3.80;;
67456;SDS011;54319;52.038;4.640;2023-08-30T09:12:14;5.07;;;3.00;;
67456;SDS011;54319;52.038;4.640;2023-08-30T09:14:41;5.22;;;2.55;;
67456;SDS011;54319;52.038;4.640;2023-08-30T09:17:09;5.78;;;2.38;;
67456;SDS011;54319;52.038;4.640;2023-08-30T09:19:35;5.18;;;2.25;;
67456;SDS011;54319;52.038;4.640;2023-08-30T09:22:02;4.72;;;2.75;;
67456;SDS011;54319;52.038;4.640;2023-08-30T09:24:37;3.90;;;2.30;;
67456;SDS011;54319;52.038;4.640;2023-08-30T09:27:06;4.32;;;2.30;;
67456;SDS011;54319;52.038;4.640;2023-08-30T09:29:33;9.07;;;2.40;;
67456;SDS011;54319;52.038;4.640;2023-08-30T09:32:00;6.80;;;2.72;;
67456;SDS011;54319;52.038;4.640;2023-08-30T09:34:27;6.90;;;2.67;;
67456;SDS011;54319;52.038;4.640;2023-08-30T09:36:54;6.28;;;2.30;;
67456;SDS011;54319;52.038;4.640;2023-08-30T09:39:21;4.47;;;2.17;;
67456;SDS011;54319;52.038;4.640;2023-08-30T09:41:48;7.35;;;2.10;;
67456;SDS011;54319;52.038;4.640;2023-08-30T09:44:17;8.68;;;2.67;;
67456;SDS011;54319;52.038;4.640;2023-08-30T09:46:45;9.90;;;2.50;;
67456;SDS011;54319;52.038;4.640;2023-08-30T09:49:13;9.80;;;2.30;;
67456;SDS011;54319;52.038;4.640;2023-08-30T09:51:40;5.47;;;2.10;;
67456;SDS011;54319;52.038;4.640;2023-08-30T09:54:10;7.75;;;2.50;;
67456;SDS011;54319;52.038;4.640;2023-08-30T09:56:44;5.20;;;1.95;;
67456;SDS011;54319;52.038;4.640;2023-08-30T09:59:12;6.97;;;2.30;;
67456;SDS011;54319;52.038;4.640;2023-08-30T10:01:41;5.00;;;2.20;;
67456;SDS011;54319;52.038;4.640;2023-08-30T10:04:09;7.32;;;2.17;;
67456;SDS011;54319;52.038;4.640;2023-08-30T10:06:36;6.97;;;1.80;;
67456;SDS011;54319;52.038;4.640;2023-08-30T10:09:04;5.78;;;2.25;;
67456;SDS011;54319;52.038;4.640;2023-08-30T10:11:32;10.20;;;2.05;;
67456;SDS011;54319;52.038;4.640;2023-08-30T10:14:01;5.15;;;1.70;;
67456;SDS011;54319;52.038;4.640;2023-08-30T10:16:31;6.13;;;1.90;;
67456;SDS011;54319;52.038;4.640;2023-08-30T10:19:07;7.45;;;1.80;;
67456;SDS011;54319;52.038;4.640;2023-08-30T10:21:38;6.78;;;2.20;;
67456;SDS011;54319;52.038;4.640;2023-08-30T10:24:05;6.70;;;1.98;;
67456;SDS011;54319;52.038;4.640;2023-08-30T10:26:35;7.72;;;2.10;;
67456;SDS011;54319;52.038;4.640;2023-08-30T10:29:04;16.67;;;2.20;;
67456;SDS011;54319;52.038;4.640;2023-08-30T10:31:32;5.80;;;1.90;;
67456;SDS011;54319;52.038;4.640;2023-08-30T10:33:59;7.15;;;2.17;;
67456;SDS011;54319;52.038;4.640;2023-08-30T10:36:27;7.32;;;2.20;;
67456;SDS011;54319;52.038;4.640;2023-08-30T10:38:55;10.55;;;2.35;;
67456;SDS011;54319;52.038;4.640;2023-08-30T10:41:22;6.32;;;2.05;;
67456;SDS011;54319;52.038;4.640;2023-08-30T10:43:50;6.90;;;1.75;;
67456;SDS011;54319;52.038;4.640;2023-08-30T10:46:28;7.32;;;1.90;;
67456;SDS011;54319;52.038;4.640;2023-08-30T10:48:55;6.00;;;1.80;;
67456;SDS011;54319;52.038;4.640;2023-08-30T10:51:36;6.10;;;2.15;;
67456;SDS011;54319;52.038;4.640;2023-08-30T10:54:11;9.48;;;2.03;;
67456;SDS011;54319;52.038;4.640;2023-08-30T10:56:48;6.13;;;1.80;;
67456;SDS011;54319;52.038;4.640;2023-08-30T10:59:20;7.85;;;1.98;;
67456;SDS011;54319;52.038;4.640;2023-08-30T11:01:50;7.55;;;2.00;;
67456;SDS011;54319;52.038;4.640;2023-08-30T11:04:18;9.63;;;1.90;;
67456;SDS011;54319;52.038;4.640;2023-08-30T11:06:48;5.45;;;1.70;;
67456;SDS011;54319;52.038;4.640;2023-08-30T11:09:16;5.38;;;1.90;;
67456;SDS011;54319;52.038;4.640;2023-08-30T11:11:45;10.95;;;2.00;;
67456;SDS011;54319;52.038;4.640;2023-08-30T11:14:12;8.30;;;1.80;;
67456;SDS011;54319;52.038;4.640;2023-08-30T11:16:40;5.20;;;1.50;;
67456;SDS011;54319;52.038;4.640;2023-08-30T11:21:35;6.40;;;2.10;;
67456;SDS011;54319;52.038;4.640;2023-08-30T11:24:04;7.55;;;1.90;;
67456;SDS011;54319;52.038;4.640;2023-08-30T11:26:32;5.97;;;1.70;;
67456;SDS011;54319;52.038;4.640;2023-08-30T11:29:03;7.00;;;1.60;;
67456;SDS011;54319;52.038;4.640;2023-08-30T11:31:30;10.93;;;1.80;;
67456;SDS011;54319;52.038;4.640;2023-08-30T11:33:57;4.95;;;1.70;;
67456;SDS011;54319;52.038;4.640;2023-08-30T11:36:26;6.72;;;2.22;;
67456;SDS011;54319;52.038;4.640;2023-08-30T11:38:54;5.40;;;1.83;;
67456;SDS011;54319;52.038;4.640;2023-08-30T11:43:50;5.18;;;1.50;;
67456;SDS011;54319;52.038;4.640;2023-08-30T11:51:10;3.80;;;1.48;;
67456;SDS011;54319;52.038;4.640;2023-08-30T11:53:38;11.20;;;1.80;;
67456;SDS011;54319;52.038;4.640;2023-08-30T11:56:06;6.15;;;1.50;;
67456;SDS011;54319;52.038;4.640;2023-08-30T11:58:35;5.38;;;1.63;;
67456;SDS011;54319;52.038;4.640;2023-08-30T12:01:02;7.13;;;2.20;;
67456;SDS011;54319;52.038;4.640;2023-08-30T12:03:30;6.65;;;1.60;;
67456;SDS011;54319;52.038;4.640;2023-08-30T12:05:58;4.93;;;1.58;;
67456;SDS011;54319;52.038;4.640;2023-08-30T12:08:27;3.60;;;1.63;;
67456;SDS011;54319;52.038;4.640;2023-08-30T12:10:55;8.85;;;1.58;;
67456;SDS011;54319;52.038;4.640;2023-08-30T12:13:23;5.80;;;1.55;;
67456;SDS011;54319;52.038;4.640;2023-08-30T12:18:20;4.32;;;1.33;;
67456;SDS011;54319;52.038;4.640;2023-08-30T12:20:51;9.68;;;1.80;;
67456;SDS011;54319;52.038;4.640;2023-08-30T12:23:19;5.18;;;1.27;;
67456;SDS011;54319;52.038;4.640;2023-08-30T12:25:56;4.78;;;1.63;;
67456;SDS011;54319;52.038;4.640;2023-08-30T12:28:23;4.30;;;1.60;;
67456;SDS011;54319;52.038;4.640;2023-08-30T12:30:51;5.85;;;1.73;;
67456;SDS011;54319;52.038;4.640;2023-08-30T12:33:18;8.30;;;1.70;;
67456;SDS011;54319;52.038;4.640;2023-08-30T12:38:11;4.65;;;1.70;;
67456;SDS011;54319;52.038;4.640;2023-08-30T12:40:42;7.68;;;1.58;;
67456;SDS011;54319;52.038;4.640;2023-08-30T12:43:09;3.67;;;1.75;;
67456;SDS011;54319;52.038;4.640;2023-08-30T12:45:37;9.18;;;2.40;;
67456;SDS011;54319;52.038;4.640;2023-08-30T12:48:06;4.80;;;1.58;;
67456;SDS011;54319;52.038;4.640;2023-08-30T12:50:33;4.47;;;1.58;;
67456;SDS011;54319;52.038;4.640;2023-08-30T12:53:00;3.58;;;1.52;;
67456;SDS011;54319;52.038;4.640;2023-08-30T12:55:27;5.72;;;1.55;;
67456;SDS011;54319;52.038;4.640;2023-08-30T12:57:54;3.78;;;1.60;;
67456;SDS011;54319;52.038;4.640;2023-08-30T13:00:20;5.47;;;2.20;;
67456;SDS011;54319;52.038;4.640;2023-08-30T13:02:47;6.18;;;1.52;;
67456;SDS011;54319;52.038;4.640;2023-08-30T13:05:15;5.03;;;1.75;;
67456;SDS011;54319;52.038;4.640;2023-08-30T13:07:42;4.47;;;2.05;;
67456;SDS011;54319;52.038;4.640;2023-08-30T13:10:09;7.55;;;1.85;;
67456;SDS011;54319;52.038;4.640;2023-08-30T13:12:36;4.80;;;1.80;;
67456;SDS011;54319;52.038;4.640;2023-08-30T13:15:04;8.30;;;1.90;;
67456;SDS011;54319;52.038;4.640;2023-08-30T13:17:31;7.18;;;2.38;;
67456;SDS011;54319;52.038;4.640;2023-08-30T13:19:58;5.22;;;2.17;;
67456;SDS011;54319;52.038;4.640;2023-08-30T13:22:28;4.93;;;1.70;;
67456;SDS011;54319;52.038;4.640;2023-08-30T13:24:56;5.45;;;1.70;;
67456;SDS011;54319;52.038;4.640;2023-08-30T13:27:23;4.22;;;1.73;;
67456;SDS011;54319;52.038;4.640;2023-08-30T13:29:49;3.10;;;1.80;;
67456;SDS011;54319;52.038;4.640;2023-08-30T13:32:16;7.65;;;1.70;;
67456;SDS011;54319;52.038;4.640;2023-08-30T13:34:43;4.47;;;1.80;;
67456;SDS011;54319;52.038;4.640;2023-08-30T13:37:11;5.00;;;1.60;;
67456;SDS011;54319;52.038;4.640;2023-08-30T13:39:39;5.20;;;1.90;;
67456;SDS011;54319;52.038;4.640;2023-08-30T13:42:06;5.03;;;1.90;;
67456;SDS011;54319;52.038;4.640;2023-08-30T13:44:33;7.78;;;1.90;;
67456;SDS011;54319;52.038;4.640;2023-08-30T13:47:02;5.47;;;1.63;;
67456;SDS011;54319;52.038;4.640;2023-08-30T13:49:29;4.68;;;1.55;;
67456;SDS011;54319;52.038;4.640;2023-08-30T13:51:56;4.40;;;1.60;;
67456;SDS011;54319;52.038;4.640;2023-08-30T13:54:23;3.33;;;1.33;;
67456;SDS011;54319;52.038;4.640;2023-08-30T13:56:51;7.20;;;1.80;;
67456;SDS011;54319;52.038;4.640;2023-08-30T13:59:18;5.63;;;1.90;;
67456;SDS011;54319;52.038;4.640;2023-08-30T14:01:45;7.88;;;1.80;;
67456;SDS011;54319;52.038;4.640;2023-08-30T14:04:11;8.43;;;1.73;;
67456;SDS011;54319;52.038;4.640;2023-08-30T14:06:39;4.63;;;1.60;;
67456;SDS011;54319;52.038;4.640;2023-08-30T14:09:07;7.90;;;1.50;;
67456;SDS011;54319;52.038;4.640;2023-08-30T14:11:34;5.53;;;1.63;;
67456;SDS011;54319;52.038;4.640;2023-08-30T14:14:02;3.30;;;1.47;;
67456;SDS011;54319;52.038;4.640;2023-08-30T14:16:28;4.82;;;1.98;;
67456;SDS011;54319;52.038;4.640;2023-08-30T14:18:55;8.25;;;2.15;;
67456;SDS011;54319;52.038;4.640;2023-08-30T14:21:24;4.05;;;1.40;;
67456;SDS011;54319;52.038;4.640;2023-08-30T14:23:51;3.53;;;1.27;;
67456;SDS011;54319;52.038;4.640;2023-08-30T14:26:18;4.50;;;1.70;;
67456;SDS011;54319;52.038;4.640;2023-08-30T14:28:44;4.78;;;1.38;;
67456;SDS011;54319;52.038;4.640;2023-08-30T14:31:12;3.60;;;1.30;;
67456;SDS011;54319;52.038;4.640;2023-08-30T14:33:41;7.18;;;1.65;;
67456;SDS011;54319;52.038;4.640;2023-08-30T14:36:10;3.75;;;1.40;;
67456;SDS011;54319;52.038;4.640;2023-08-30T14:38:38;3.47;;;1.40;;
67456;SDS011;54319;52.038;4.640;2023-08-30T14:41:05;4.55;;;1.45;;
67456;SDS011;54319;52.038;4.640;2023-08-30T14:43:32;5.07;;;1.65;;
67456;SDS011;54319;52.038;4.640;2023-08-30T14:45:59;5.85;;;1.88;;
67456;SDS011;54319;52.038;4.640;2023-08-30T14:48:28;5.45;;;1.48;;
67456;SDS011;54319;52.038;4.640;2023-08-30T14:50:56;8.20;;;2.90;;
67456;SDS011;54319;52.038;4.640;2023-08-30T14:53:23;5.45;;;1.80;;
67456;SDS011;54319;52.038;4.640;2023-08-30T14:55:50;6.20;;;1.48;;
67456;SDS011;54319;52.038;4.640;2023-08-30T14:58:16;6.03;;;1.52;;
67456;SDS011;54319;52.038;4.640;2023-08-30T15:00:43;5.00;;;1.42;;
67456;SDS011;54319;52.038;4.640;2023-08-30T15:05:38;7.75;;;2.00;;
67456;SDS011;54319;52.038;4.640;2023-08-30T15:08:05;4.45;;;1.90;;
67456;SDS011;54319;52.038;4.640;2023-08-30T15:12:59;7.60;;;1.50;;
67456;SDS011;54319;52.038;4.640;2023-08-30T15:15:25;4.28;;;1.60;;
67456;SDS011;54319;52.038;4.640;2023-08-30T15:17:52;4.78;;;1.80;;